createdAt,value
2022-10-09T00:25:27.818Z,21.61
2022-10-09T00:45:27.808Z,21.61
2022-10-09T01:05:27.282Z,21.61
2022-10-09T01:25:27.839Z,21.61
2022-10-09T01:45:27.287Z,21.61
2022-10-09T02:05:27.793Z,21.6
2022-10-09T02:25:27.818Z,21.61
2022-10-09T02:45:27.267Z,21.6
2022-10-09T03:05:27.786Z,21.6
2022-10-09T03:25:27.780Z,21.6
2022-10-09T03:45:27.776Z,21.6
2022-10-09T04:05:27.781Z,21.6
2022-10-09T04:25:27.802Z,21.59
2022-10-09T04:45:27.776Z,21.59
2022-10-09T05:05:27.778Z,21.58
2022-10-09T05:25:26.992Z,21.6
2022-10-09T05:45:27.819Z,21.6
2022-10-09T06:05:27.773Z,21.57
2022-10-09T06:25:27.768Z,21.6
2022-10-09T06:45:27.764Z,21.59
2022-10-09T07:05:27.762Z,21.59
2022-10-09T07:25:27.769Z,21.59
2022-10-09T07:45:27.599Z,21.59
2022-10-09T08:25:27.169Z,21.6
2022-10-09T08:45:27.664Z,21.59
2022-10-09T09:05:27.635Z,21.59
2022-10-09T09:25:27.603Z,21.59
2022-10-09T09:45:27.582Z,21.59
2022-10-09T10:05:27.573Z,21.59
2022-10-09T10:25:27.499Z,21.58
2022-10-09T10:45:27.472Z,21.57
2022-10-09T11:05:26.671Z,21.57
2022-10-09T11:25:27.421Z,21.56
2022-10-09T11:45:27.326Z,21.55
2022-10-09T12:05:27.357Z,21.54
2022-10-09T12:25:27.331Z,21.53
2022-10-09T12:45:26.795Z,21.52
2022-10-09T13:45:27.211Z,21.5
2022-10-09T14:05:27.214Z,21.49
2022-10-09T14:45:27.119Z,21.49
2022-10-09T15:45:27.046Z,21.48
2022-10-09T16:05:27.022Z,21.49
2022-10-09T16:25:26.972Z,21.48
2022-10-09T16:45:26.936Z,21.48
2022-10-09T17:05:26.776Z,21.47
2022-10-09T17:25:26.891Z,21.47
2022-10-09T17:45:26.943Z,21.47
2022-10-09T19:05:26.808Z,21.45
2022-10-09T19:25:26.799Z,21.44
2022-10-09T19:45:26.268Z,21.43
2022-10-09T20:05:26.777Z,21.43
2022-10-09T21:05:26.749Z,21.42
2022-10-09T21:25:26.737Z,21.42
2022-10-09T21:45:26.728Z,21.41
2022-10-09T22:05:26.768Z,21.41
2022-10-09T22:25:26.734Z,21.41
2022-10-09T22:45:26.718Z,21.41
2022-10-09T23:25:26.725Z,21.4
2022-10-09T23:45:26.699Z,21.39
